sensor_id;sensor_type;location;lat;lon;timestamp;temperature;humidity
2869;DHT22;1442;47.448;8.582;2024-02-21T00:02:26;5.00;99.90
2869;DHT22;1442;47.448;8.582;2024-02-21T00:04:53;5.00;99.90
2869;DHT22;1442;47.448;8.582;2024-02-21T00:07:20;5.00;99.90
2869;DHT22;1442;47.448;8.582;2024-02-21T00:09:48;5.00;99.90
2869;DHT22;1442;47.448;8.582;2024-02-21T00:12:15;5.00;99.90
2869;DHT22;1442;47.448;8.582;2024-02-21T00:14:41;5.00;99.90
2869;DHT22;1442;47.448;8.582;2024-02-21T00:17:09;5.00;99.90
2869;DHT22;1442;47.448;8.582;2024-02-21T00:19:35;5.00;99.90
2869;DHT22;1442;47.448;8.582;2024-02-21T00:22:02;5.00;99.90
2869;DHT22;1442;47.448;8.582;2024-02-21T00:24:29;5.00;99.90
2869;DHT22;1442;47.448;8.582;2024-02-21T00:26:57;5.00;99.90
2869;DHT22;1442;47.448;8.582;2024-02-21T00:29:23;5.00;99.90
2869;DHT22;1442;47.448;8.582;2024-02-21T00:31:51;4.90;99.90
2869;DHT22;1442;47.448;8.582;2024-02-21T00:34:18;4.90;99.90
2869;DHT22;1442;47.448;8.582;2024-02-21T00:36:44;4.90;99.90
2869;DHT22;1442;47.448;8.582;2024-02-21T00:39:11;4.90;99.90
2869;DHT22;1442;47.448;8.582;2024-02-21T00:41:38;4.80;99.90
2869;DHT22;1442;47.448;8.582;2024-02-21T00:44:06;4.80;99.90
2869;DHT22;1442;47.448;8.582;2024-02-21T00:46:33;4.70;99.90
2869;DHT22;1442;47.448;8.582;2024-02-21T00:48:59;4.80;99.90
2869;DHT22;1442;47.448;8.582;2024-02-21T00:51:26;4.70;99.90
2869;DHT22;1442;47.448;8.582;2024-02-21T00:53:53;4.70;99.90
2869;DHT22;1442;47.448;8.582;2024-02-21T00:56:20;4.70;99.90
2869;DHT22;1442;47.448;8.582;2024-02-21T00:58:47;4.70;99.90
2869;DHT22;1442;47.448;8.582;2024-02-21T01:01:21;4.70;99.90
2869;DHT22;1442;47.448;8.582;2024-02-21T01:03:48;4.60;99.90
2869;DHT22;1442;47.448;8.582;2024-02-21T01:06:14;4.60;99.90
2869;DHT22;1442;47.448;8.582;2024-02-21T01:08:41;4.60;99.90
2869;DHT22;1442;47.448;8.582;2024-02-21T01:11:08;4.70;99.90
2869;DHT22;1442;47.448;8.582;2024-02-21T01:13:35;4.60;99.90
2869;DHT22;1442;47.448;8.582;2024-02-21T01:16:01;4.70;99.90
2869;DHT22;1442;47.448;8.582;2024-02-21T01:18:29;4.80;99.90
2869;DHT22;1442;47.448;8.582;2024-02-21T01:20:56;4.70;99.90
2869;DHT22;1442;47.448;8.582;2024-02-21T01:23:23;4.70;99.90
2869;DHT22;1442;47.448;8.582;2024-02-21T01:25:50;4.70;99.90
2869;DHT22;1442;47.448;8.582;2024-02-21T01:28:17;4.70;99.90
2869;DHT22;1442;47.448;8.582;2024-02-21T01:30:44;4.70;99.90
2869;DHT22;1442;47.448;8.582;2024-02-21T01:33:10;4.70;99.90
2869;DHT22;1442;47.448;8.582;2024-02-21T01:35:38;4.70;99.90
2869;DHT22;1442;47.448;8.582;2024-02-21T01:38:05;4.70;99.90
2869;DHT22;1442;47.448;8.582;2024-02-21T01:40:32;4.70;99.90
2869;DHT22;1442;47.448;8.582;2024-02-21T01:42:59;4.80;99.90
2869;DHT22;1442;47.448;8.582;2024-02-21T01:45:25;4.70;99.90
2869;DHT22;1442;47.448;8.582;2024-02-21T01:47:52;4.70;99.90
2869;DHT22;1442;47.448;8.582;2024-02-21T01:50:19;4.60;99.90
2869;DHT22;1442;47.448;8.582;2024-02-21T01:52:49;4.70;99.90
2869;DHT22;1442;47.448;8.582;2024-02-21T01:55:16;4.70;99.90
2869;DHT22;1442;47.448;8.582;2024-02-21T01:57:44;4.70;99.90
2869;DHT22;1442;47.448;8.582;2024-02-21T02:00:13;4.70;99.90
2869;DHT22;1442;47.448;8.582;2024-02-21T02:02:42;4.70;99.90
2869;DHT22;1442;47.448;8.582;2024-02-21T02:05:09;4.70;99.90
2869;DHT22;1442;47.448;8.582;2024-02-21T02:07:37;4.70;99.90
2869;DHT22;1442;47.448;8.582;2024-02-21T02:10:06;4.70;99.90
2869;DHT22;1442;47.448;8.582;2024-02-21T02:12:33;4.70;99.90
2869;DHT22;1442;47.448;8.582;2024-02-21T02:15:00;4.80;99.90
2869;DHT22;1442;47.448;8.582;2024-02-21T02:17:27;4.80;99.90
2869;DHT22;1442;47.448;8.582;2024-02-21T02:19:54;4.80;99.90
2869;DHT22;1442;47.448;8.582;2024-02-21T02:22:22;4.80;99.90
2869;DHT22;1442;47.448;8.582;2024-02-21T02:24:53;4.80;99.90
2869;DHT22;1442;47.448;8.582;2024-02-21T02:27:19;4.90;99.90
2869;DHT22;1442;47.448;8.582;2024-02-21T02:29:48;4.90;99.90
2869;DHT22;1442;47.448;8.582;2024-02-21T02:32:16;4.90;99.90
2869;DHT22;1442;47.448;8.582;2024-02-21T02:34:42;4.90;99.90
2869;DHT22;1442;47.448;8.582;2024-02-21T02:37:09;4.90;99.90
2869;DHT22;1442;47.448;8.582;2024-02-21T02:39:36;5.00;99.90
2869;DHT22;1442;47.448;8.582;2024-02-21T02:42:05;5.00;99.90
2869;DHT22;1442;47.448;8.582;2024-02-21T02:44:31;5.00;99.90
2869;DHT22;1442;47.448;8.582;2024-02-21T02:46:58;5.00;99.90
2869;DHT22;1442;47.448;8.582;2024-02-21T02:49:25;5.00;99.90
2869;DHT22;1442;47.448;8.582;2024-02-21T02:51:51;5.00;99.90
2869;DHT22;1442;47.448;8.582;2024-02-21T02:54:18;5.10;99.90
2869;DHT22;1442;47.448;8.582;2024-02-21T02:56:45;5.10;99.90
2869;DHT22;1442;47.448;8.582;2024-02-21T02:59:13;5.00;99.90
2869;DHT22;1442;47.448;8.582;2024-02-21T03:01:40;5.00;99.90
2869;DHT22;1442;47.448;8.582;2024-02-21T03:04:06;5.00;99.90
2869;DHT22;1442;47.448;8.582;2024-02-21T03:06:33;5.00;99.90
2869;DHT22;1442;47.448;8.582;2024-02-21T03:09:00;5.00;99.90
2869;DHT22;1442;47.448;8.582;2024-02-21T03:11:27;4.90;99.90
2869;DHT22;1442;47.448;8.582;2024-02-21T03:13:55;5.00;99.90
2869;DHT22;1442;47.448;8.582;2024-02-21T03:16:24;5.00;99.90
2869;DHT22;1442;47.448;8.582;2024-02-21T03:18:51;5.00;99.90
2869;DHT22;1442;47.448;8.582;2024-02-21T03:21:18;5.00;99.90
2869;DHT22;1442;47.448;8.582;2024-02-21T03:23:44;5.00;99.90
2869;DHT22;1442;47.448;8.582;2024-02-21T03:26:11;5.00;99.90
2869;DHT22;1442;47.448;8.582;2024-02-21T03:28:42;5.00;99.90
2869;DHT22;1442;47.448;8.582;2024-02-21T03:31:11;5.00;99.90
2869;DHT22;1442;47.448;8.582;2024-02-21T03:33:39;5.00;99.90
2869;DHT22;1442;47.448;8.582;2024-02-21T03:36:07;5.10;99.90
2869;DHT22;1442;47.448;8.582;2024-02-21T03:38:39;5.10;99.90
2869;DHT22;1442;47.448;8.582;2024-02-21T03:41:05;5.10;99.90
2869;DHT22;1442;47.448;8.582;2024-02-21T03:43:32;5.10;99.90
2869;DHT22;1442;47.448;8.582;2024-02-21T03:45:59;5.10;99.90
2869;DHT22;1442;47.448;8.582;2024-02-21T03:48:26;5.10;99.90
2869;DHT22;1442;47.448;8.582;2024-02-21T03:50:55;5.10;99.90
2869;DHT22;1442;47.448;8.582;2024-02-21T03:53:21;5.10;99.90
2869;DHT22;1442;47.448;8.582;2024-02-21T03:55:48;5.10;99.90
2869;DHT22;1442;47.448;8.582;2024-02-21T03:58:15;5.20;99.90
2869;DHT22;1442;47.448;8.582;2024-02-21T04:00:41;5.20;99.90
2869;DHT22;1442;47.448;8.582;2024-02-21T04:03:08;5.20;99.90
2869;DHT22;1442;47.448;8.582;2024-02-21T04:05:35;5.20;99.90
2869;DHT22;1442;47.448;8.582;2024-02-21T04:08:05;5.20;99.90
2869;DHT22;1442;47.448;8.582;2024-02-21T04:10:32;5.20;99.90
2869;DHT22;1442;47.448;8.582;2024-02-21T04:12:59;5.20;99.90
2869;DHT22;1442;47.448;8.582;2024-02-21T04:15:25;5.10;99.90
2869;DHT22;1442;47.448;8.582;2024-02-21T04:17:52;5.20;99.90
2869;DHT22;1442;47.448;8.582;2024-02-21T04:20:19;5.10;99.90
2869;DHT22;1442;47.448;8.582;2024-02-21T04:22:46;5.10;99.90
2869;DHT22;1442;47.448;8.582;2024-02-21T04:25:14;5.10;99.90
2869;DHT22;1442;47.448;8.582;2024-02-21T04:27:41;5.10;99.90
2869;DHT22;1442;47.448;8.582;2024-02-21T04:30:08;5.20;99.90
2869;DHT22;1442;47.448;8.582;2024-02-21T04:32:36;5.10;99.90
2869;DHT22;1442;47.448;8.582;2024-02-21T04:35:03;5.00;99.90
2869;DHT22;1442;47.448;8.582;2024-02-21T04:37:30;5.00;99.90
2869;DHT22;1442;47.448;8.582;2024-02-21T04:39:57;5.00;99.90
2869;DHT22;1442;47.448;8.582;2024-02-21T04:42:25;5.10;99.90
2869;DHT22;1442;47.448;8.582;2024-02-21T04:44:52;5.00;99.90
2869;DHT22;1442;47.448;8.582;2024-02-21T04:47:19;5.00;99.90
2869;DHT22;1442;47.448;8.582;2024-02-21T04:49:46;4.90;99.90
2869;DHT22;1442;47.448;8.582;2024-02-21T04:52:13;4.90;99.90
2869;DHT22;1442;47.448;8.582;2024-02-21T04:54:39;4.90;99.90
2869;DHT22;1442;47.448;8.582;2024-02-21T04:57:06;4.90;99.90
2869;DHT22;1442;47.448;8.582;2024-02-21T04:59:37;4.90;99.90
2869;DHT22;1442;47.448;8.582;2024-02-21T05:02:04;4.90;99.90
2869;DHT22;1442;47.448;8.582;2024-02-21T05:04:30;4.90;99.90
2869;DHT22;1442;47.448;8.582;2024-02-21T05:06:57;4.90;99.90
2869;DHT22;1442;47.448;8.582;2024-02-21T05:09:24;5.00;99.90
2869;DHT22;1442;47.448;8.582;2024-02-21T05:11:50;5.00;99.90
2869;DHT22;1442;47.448;8.582;2024-02-21T05:14:17;5.00;99.90
2869;DHT22;1442;47.448;8.582;2024-02-21T05:16:45;5.00;99.90
2869;DHT22;1442;47.448;8.582;2024-02-21T05:19:12;5.00;99.90
2869;DHT22;1442;47.448;8.582;2024-02-21T05:21:39;5.00;99.90
2869;DHT22;1442;47.448;8.582;2024-02-21T05:24:06;5.00;99.90
2869;DHT22;1442;47.448;8.582;2024-02-21T05:26:32;5.00;99.90
2869;DHT22;1442;47.448;8.582;2024-02-21T05:28:59;5.00;99.90
2869;DHT22;1442;47.448;8.582;2024-02-21T05:31:26;5.00;99.90
2869;DHT22;1442;47.448;8.582;2024-02-21T05:34:10;4.90;99.90
2869;DHT22;1442;47.448;8.582;2024-02-21T05:36:37;5.00;99.90
2869;DHT22;1442;47.448;8.582;2024-02-21T05:39:04;5.00;99.90
2869;DHT22;1442;47.448;8.582;2024-02-21T05:41:31;5.00;99.90
2869;DHT22;1442;47.448;8.582;2024-02-21T05:43:58;5.00;99.90
2869;DHT22;1442;47.448;8.582;2024-02-21T05:46:25;5.00;99.90
2869;DHT22;1442;47.448;8.582;2024-02-21T05:48:52;5.00;99.90
2869;DHT22;1442;47.448;8.582;2024-02-21T05:51:20;5.00;99.90
2869;DHT22;1442;47.448;8.582;2024-02-21T05:53:46;5.00;99.90
2869;DHT22;1442;47.448;8.582;2024-02-21T05:56:14;5.00;99.90
2869;DHT22;1442;47.448;8.582;2024-02-21T05:58:41;5.00;99.90
2869;DHT22;1442;47.448;8.582;2024-02-21T06:01:07;5.00;99.90
2869;DHT22;1442;47.448;8.582;2024-02-21T06:03:34;5.00;99.90
2869;DHT22;1442;47.448;8.582;2024-02-21T06:06:02;5.00;99.90
2869;DHT22;1442;47.448;8.582;2024-02-21T06:08:31;5.00;99.90
2869;DHT22;1442;47.448;8.582;2024-02-21T06:10:58;5.00;99.90
2869;DHT22;1442;47.448;8.582;2024-02-21T06:13:25;5.00;99.90
2869;DHT22;1442;47.448;8.582;2024-02-21T06:15:51;5.00;99.90
2869;DHT22;1442;47.448;8.582;2024-02-21T06:18:19;5.00;99.90
2869;DHT22;1442;47.448;8.582;2024-02-21T06:20:46;5.00;99.90
2869;DHT22;1442;47.448;8.582;2024-02-21T06:23:14;5.00;99.90
2869;DHT22;1442;47.448;8.582;2024-02-21T06:25:43;5.00;99.90
2869;DHT22;1442;47.448;8.582;2024-02-21T06:28:10;5.00;99.90
2869;DHT22;1442;47.448;8.582;2024-02-21T06:30:37;5.00;99.90
2869;DHT22;1442;47.448;8.582;2024-02-21T06:33:04;5.00;99.90
2869;DHT22;1442;47.448;8.582;2024-02-21T06:35:33;5.00;99.90
2869;DHT22;1442;47.448;8.582;2024-02-21T06:38:00;4.90;99.90
2869;DHT22;1442;47.448;8.582;2024-02-21T06:40:26;5.10;99.90
2869;DHT22;1442;47.448;8.582;2024-02-21T06:42:55;5.10;99.90
2869;DHT22;1442;47.448;8.582;2024-02-21T06:45:21;5.10;99.90
2869;DHT22;1442;47.448;8.582;2024-02-21T06:47:48;5.10;99.90
2869;DHT22;1442;47.448;8.582;2024-02-21T06:50:15;5.10;99.90
2869;DHT22;1442;47.448;8.582;2024-02-21T06:52:42;5.10;99.90
2869;DHT22;1442;47.448;8.582;2024-02-21T06:55:09;5.10;99.90
2869;DHT22;1442;47.448;8.582;2024-02-21T06:57:36;5.10;99.90
2869;DHT22;1442;47.448;8.582;2024-02-21T07:00:05;5.10;99.90
2869;DHT22;1442;47.448;8.582;2024-02-21T07:02:33;5.10;99.90
2869;DHT22;1442;47.448;8.582;2024-02-21T07:05:00;5.20;99.90
2869;DHT22;1442;47.448;8.582;2024-02-21T07:07:27;5.20;99.90
2869;DHT22;1442;47.448;8.582;2024-02-21T07:09:55;5.20;99.90
2869;DHT22;1442;47.448;8.582;2024-02-21T07:12:22;5.20;99.90
2869;DHT22;1442;47.448;8.582;2024-02-21T07:14:48;5.30;99.90
2869;DHT22;1442;47.448;8.582;2024-02-21T07:17:16;5.30;99.90
2869;DHT22;1442;47.448;8.582;2024-02-21T07:19:43;5.30;99.90
2869;DHT22;1442;47.448;8.582;2024-02-21T07:22:10;5.40;99.90
2869;DHT22;1442;47.448;8.582;2024-02-21T07:24:37;5.40;99.90
2869;DHT22;1442;47.448;8.582;2024-02-21T07:27:04;5.40;99.90
2869;DHT22;1442;47.448;8.582;2024-02-21T07:29:31;5.50;99.90
2869;DHT22;1442;47.448;8.582;2024-02-21T07:31:57;5.50;99.90
2869;DHT22;1442;47.448;8.582;2024-02-21T07:34:26;5.60;99.90
2869;DHT22;1442;47.448;8.582;2024-02-21T07:36:52;5.60;99.90
2869;DHT22;1442;47.448;8.582;2024-02-21T07:39:22;5.70;99.90
2869;DHT22;1442;47.448;8.582;2024-02-21T07:41:49;5.70;99.90
2869;DHT22;1442;47.448;8.582;2024-02-21T07:44:15;5.80;99.90
2869;DHT22;1442;47.448;8.582;2024-02-21T07:46:42;5.80;99.90
2869;DHT22;1442;47.448;8.582;2024-02-21T07:49:09;5.90;99.90
2869;DHT22;1442;47.448;8.582;2024-02-21T07:51:37;5.90;99.90
2869;DHT22;1442;47.448;8.582;2024-02-21T07:54:04;6.00;99.90
2869;DHT22;1442;47.448;8.582;2024-02-21T07:56:31;6.10;99.90
2869;DHT22;1442;47.448;8.582;2024-02-21T07:58:58;6.20;99.90
2869;DHT22;1442;47.448;8.582;2024-02-21T08:01:24;6.30;99.90
2869;DHT22;1442;47.448;8.582;2024-02-21T08:03:51;6.30;99.90
2869;DHT22;1442;47.448;8.582;2024-02-21T08:06:18;6.40;99.90
2869;DHT22;1442;47.448;8.582;2024-02-21T08:08:46;6.40;99.90
2869;DHT22;1442;47.448;8.582;2024-02-21T08:11:13;6.40;99.90
2869;DHT22;1442;47.448;8.582;2024-02-21T08:13:39;6.60;99.90
2869;DHT22;1442;47.448;8.582;2024-02-21T08:16:06;6.60;99.90
2869;DHT22;1442;47.448;8.582;2024-02-21T08:18:33;6.70;99.90
2869;DHT22;1442;47.448;8.582;2024-02-21T08:21:03;6.70;99.90
2869;DHT22;1442;47.448;8.582;2024-02-21T08:23:29;6.80;99.90
2869;DHT22;1442;47.448;8.582;2024-02-21T08:25:57;6.90;99.90
2869;DHT22;1442;47.448;8.582;2024-02-21T08:28:24;7.00;99.90
2869;DHT22;1442;47.448;8.582;2024-02-21T08:30:51;7.00;99.90
2869;DHT22;1442;47.448;8.582;2024-02-21T08:33:18;7.10;99.90
2869;DHT22;1442;47.448;8.582;2024-02-21T08:35:45;7.10;99.90
2869;DHT22;1442;47.448;8.582;2024-02-21T08:38:12;7.20;99.90
2869;DHT22;1442;47.448;8.582;2024-02-21T08:40:38;7.30;99.90
2869;DHT22;1442;47.448;8.582;2024-02-21T08:43:06;7.30;99.90
2869;DHT22;1442;47.448;8.582;2024-02-21T08:45:33;7.30;99.90
2869;DHT22;1442;47.448;8.582;2024-02-21T08:48:00;7.40;99.90
2869;DHT22;1442;47.448;8.582;2024-02-21T08:50:27;7.50;99.90
2869;DHT22;1442;47.448;8.582;2024-02-21T08:52:54;7.60;99.90
2869;DHT22;1442;47.448;8.582;2024-02-21T08:55:21;7.60;99.90
2869;DHT22;1442;47.448;8.582;2024-02-21T08:57:47;7.70;99.90
2869;DHT22;1442;47.448;8.582;2024-02-21T09:00:16;7.70;99.90
2869;DHT22;1442;47.448;8.582;2024-02-21T09:02:43;7.80;99.90
2869;DHT22;1442;47.448;8.582;2024-02-21T09:05:10;7.90;99.90
2869;DHT22;1442;47.448;8.582;2024-02-21T09:07:37;7.90;99.90
2869;DHT22;1442;47.448;8.582;2024-02-21T09:10:05;8.00;99.90
2869;DHT22;1442;47.448;8.582;2024-02-21T09:12:32;8.10;99.90
2869;DHT22;1442;47.448;8.582;2024-02-21T09:14:58;8.20;99.90
2869;DHT22;1442;47.448;8.582;2024-02-21T09:17:26;8.30;99.90
2869;DHT22;1442;47.448;8.582;2024-02-21T09:19:54;8.30;99.90
2869;DHT22;1442;47.448;8.582;2024-02-21T09:22:24;8.30;99.90
2869;DHT22;1442;47.448;8.582;2024-02-21T09:24:51;8.30;99.90
2869;DHT22;1442;47.448;8.582;2024-02-21T09:27:17;8.40;99.90
2869;DHT22;1442;47.448;8.582;2024-02-21T09:29:44;8.40;99.90
2869;DHT22;1442;47.448;8.582;2024-02-21T09:32:11;8.40;99.90
2869;DHT22;1442;47.448;8.582;2024-02-21T09:34:40;8.50;99.90
2869;DHT22;1442;47.448;8.582;2024-02-21T09:37:07;8.60;99.90
2869;DHT22;1442;47.448;8.582;2024-02-21T09:39:34;8.60;99.90
2869;DHT22;1442;47.448;8.582;2024-02-21T09:42:05;8.60;99.90
2869;DHT22;1442;47.448;8.582;2024-02-21T09:44:36;8.70;99.90
2869;DHT22;1442;47.448;8.582;2024-02-21T09:49:32;8.90;99.90
2869;DHT22;1442;47.448;8.582;2024-02-21T09:52:02;8.90;99.90
2869;DHT22;1442;47.448;8.582;2024-02-21T09:54:30;9.00;99.90
2869;DHT22;1442;47.448;8.582;2024-02-21T09:56:57;9.10;99.90
2869;DHT22;1442;47.448;8.582;2024-02-21T09:59:24;9.00;99.90
2869;DHT22;1442;47.448;8.582;2024-02-21T10:01:51;8.90;99.90
2869;DHT22;1442;47.448;8.582;2024-02-21T10:04:19;9.10;99.90
2869;DHT22;1442;47.448;8.582;2024-02-21T10:06:46;9.20;99.90
2869;DHT22;1442;47.448;8.582;2024-02-21T10:09:21;9.20;99.90
2869;DHT22;1442;47.448;8.582;2024-02-21T10:11:49;9.30;99.90
2869;DHT22;1442;47.448;8.582;2024-02-21T10:14:16;9.40;99.90
2869;DHT22;1442;47.448;8.582;2024-02-21T10:16:44;9.40;99.90
2869;DHT22;1442;47.448;8.582;2024-02-21T10:19:17;9.50;99.90
2869;DHT22;1442;47.448;8.582;2024-02-21T10:21:57;9.50;99.90
2869;DHT22;1442;47.448;8.582;2024-02-21T10:24:27;9.60;99.90
2869;DHT22;1442;47.448;8.582;2024-02-21T10:26:59;9.60;99.90
2869;DHT22;1442;47.448;8.582;2024-02-21T10:29:26;9.70;99.90
2869;DHT22;1442;47.448;8.582;2024-02-21T10:32:04;9.80;99.90
2869;DHT22;1442;47.448;8.582;2024-02-21T10:34:31;9.80;99.90
2869;DHT22;1442;47.448;8.582;2024-02-21T10:37:01;9.90;99.90
2869;DHT22;1442;47.448;8.582;2024-02-21T10:39:30;10.00;99.90
2869;DHT22;1442;47.448;8.582;2024-02-21T10:42:00;10.10;99.90
2869;DHT22;1442;47.448;8.582;2024-02-21T10:44:28;10.20;99.90
2869;DHT22;1442;47.448;8.582;2024-02-21T10:46:56;10.20;99.90
2869;DHT22;1442;47.448;8.582;2024-02-21T10:49:24;10.20;99.90
2869;DHT22;1442;47.448;8.582;2024-02-21T10:51:54;10.30;99.90
2869;DHT22;1442;47.448;8.582;2024-02-21T10:54:37;10.30;99.90
2869;DHT22;1442;47.448;8.582;2024-02-21T10:57:06;10.40;99.90
2869;DHT22;1442;47.448;8.582;2024-02-21T10:59:37;10.50;99.90
2869;DHT22;1442;47.448;8.582;2024-02-21T11:02:05;10.60;99.90
2869;DHT22;1442;47.448;8.582;2024-02-21T11:04:33;10.70;99.90
2869;DHT22;1442;47.448;8.582;2024-02-21T11:07:02;10.70;99.90
2869;DHT22;1442;47.448;8.582;2024-02-21T11:09:30;10.70;99.90
2869;DHT22;1442;47.448;8.582;2024-02-21T11:12:01;10.70;99.90
2869;DHT22;1442;47.448;8.582;2024-02-21T11:14:29;10.80;99.90
2869;DHT22;1442;47.448;8.582;2024-02-21T11:16:58;10.90;99.90
2869;DHT22;1442;47.448;8.582;2024-02-21T11:19:26;10.90;99.90
2869;DHT22;1442;47.448;8.582;2024-02-21T11:21:54;11.00;99.90
2869;DHT22;1442;47.448;8.582;2024-02-21T11:24:28;11.10;99.90
2869;DHT22;1442;47.448;8.582;2024-02-21T11:26:56;11.10;99.90
2869;DHT22;1442;47.448;8.582;2024-02-21T11:29:27;11.10;99.90
2869;DHT22;1442;47.448;8.582;2024-02-21T11:31:54;11.10;99.90
2869;DHT22;1442;47.448;8.582;2024-02-21T11:34:21;11.20;99.90
2869;DHT22;1442;47.448;8.582;2024-02-21T11:36:48;11.30;99.90
2869;DHT22;1442;47.448;8.582;2024-02-21T11:39:20;11.40;99.90
2869;DHT22;1442;47.448;8.582;2024-02-21T11:41:47;11.40;99.90
2869;DHT22;1442;47.448;8.582;2024-02-21T11:44:14;11.40;99.90
2869;DHT22;1442;47.448;8.582;2024-02-21T11:46:42;11.40;99.90
2869;DHT22;1442;47.448;8.582;2024-02-21T11:49:10;11.50;99.90
2869;DHT22;1442;47.448;8.582;2024-02-21T11:51:36;11.50;99.90
2869;DHT22;1442;47.448;8.582;2024-02-21T11:54:03;11.40;99.90
2869;DHT22;1442;47.448;8.582;2024-02-21T11:56:30;11.50;99.90
2869;DHT22;1442;47.448;8.582;2024-02-21T11:58:58;11.40;99.90
2869;DHT22;1442;47.448;8.582;2024-02-21T12:01:25;11.50;99.90
2869;DHT22;1442;47.448;8.582;2024-02-21T12:03:54;11.40;99.90
2869;DHT22;1442;47.448;8.582;2024-02-21T12:06:21;11.50;99.90
2869;DHT22;1442;47.448;8.582;2024-02-21T12:08:48;11.50;99.90
2869;DHT22;1442;47.448;8.582;2024-02-21T12:11:20;11.50;99.90
2869;DHT22;1442;47.448;8.582;2024-02-21T12:13:47;11.60;99.90
2869;DHT22;1442;47.448;8.582;2024-02-21T12:16:24;11.70;99.90
2869;DHT22;1442;47.448;8.582;2024-02-21T12:18:54;11.70;99.90
2869;DHT22;1442;47.448;8.582;2024-02-21T12:21:24;11.70;99.90
2869;DHT22;1442;47.448;8.582;2024-02-21T12:23:51;11.80;99.90
2869;DHT22;1442;47.448;8.582;2024-02-21T12:26:17;11.90;99.90
2869;DHT22;1442;47.448;8.582;2024-02-21T12:28:44;11.90;99.90
2869;DHT22;1442;47.448;8.582;2024-02-21T12:31:11;11.90;99.90
2869;DHT22;1442;47.448;8.582;2024-02-21T12:33:38;12.10;99.90
2869;DHT22;1442;47.448;8.582;2024-02-21T12:36:06;12.10;99.90
2869;DHT22;1442;47.448;8.582;2024-02-21T12:38:34;12.10;99.90
2869;DHT22;1442;47.448;8.582;2024-02-21T12:41:01;12.10;99.90
2869;DHT22;1442;47.448;8.582;2024-02-21T12:43:28;12.10;99.90
2869;DHT22;1442;47.448;8.582;2024-02-21T12:45:55;12.00;99.90
2869;DHT22;1442;47.448;8.582;2024-02-21T12:48:22;12.00;99.90
2869;DHT22;1442;47.448;8.582;2024-02-21T12:50:50;12.10;99.90
2869;DHT22;1442;47.448;8.582;2024-02-21T12:53:19;12.00;99.90
2869;DHT22;1442;47.448;8.582;2024-02-21T12:55:46;12.00;99.90
2869;DHT22;1442;47.448;8.582;2024-02-21T12:58:14;12.00;99.90
2869;DHT22;1442;47.448;8.582;2024-02-21T13:00:41;12.00;99.90
2869;DHT22;1442;47.448;8.582;2024-02-21T13:03:08;12.10;99.90
2869;DHT22;1442;47.448;8.582;2024-02-21T13:05:35;12.00;99.90
2869;DHT22;1442;47.448;8.582;2024-02-21T13:08:02;12.10;99.90
2869;DHT22;1442;47.448;8.582;2024-02-21T13:10:30;12.00;99.90
2869;DHT22;1442;47.448;8.582;2024-02-21T13:12:59;12.10;99.90
2869;DHT22;1442;47.448;8.582;2024-02-21T13:15:25;12.10;99.90
2869;DHT22;1442;47.448;8.582;2024-02-21T13:17:53;12.20;99.90
2869;DHT22;1442;47.448;8.582;2024-02-21T13:20:20;12.20;99.90
2869;DHT22;1442;47.448;8.582;2024-02-21T13:22:47;12.40;99.90
2869;DHT22;1442;47.448;8.582;2024-02-21T13:25:14;12.50;99.90
2869;DHT22;1442;47.448;8.582;2024-02-21T13:27:45;12.60;99.90
2869;DHT22;1442;47.448;8.582;2024-02-21T13:30:12;12.60;99.90
2869;DHT22;1442;47.448;8.582;2024-02-21T13:32:41;12.60;99.90
2869;DHT22;1442;47.448;8.582;2024-02-21T13:35:09;12.70;99.90
2869;DHT22;1442;47.448;8.582;2024-02-21T13:37:37;12.70;99.90
2869;DHT22;1442;47.448;8.582;2024-02-21T13:40:04;12.60;99.90
2869;DHT22;1442;47.448;8.582;2024-02-21T13:42:31;12.60;99.90
2869;DHT22;1442;47.448;8.582;2024-02-21T13:44:59;12.60;99.90
2869;DHT22;1442;47.448;8.582;2024-02-21T13:47:26;12.70;99.90
2869;DHT22;1442;47.448;8.582;2024-02-21T13:49:53;12.80;99.90
2869;DHT22;1442;47.448;8.582;2024-02-21T13:52:21;12.80;99.90
2869;DHT22;1442;47.448;8.582;2024-02-21T13:54:47;12.90;99.90
2869;DHT22;1442;47.448;8.582;2024-02-21T13:57:14;12.90;99.90
2869;DHT22;1442;47.448;8.582;2024-02-21T13:59:41;12.90;99.90
2869;DHT22;1442;47.448;8.582;2024-02-21T14:02:09;12.90;99.90
2869;DHT22;1442;47.448;8.582;2024-02-21T14:04:36;12.90;99.90
2869;DHT22;1442;47.448;8.582;2024-02-21T14:07:03;12.80;99.90
2869;DHT22;1442;47.448;8.582;2024-02-21T14:09:30;12.90;99.90
2869;DHT22;1442;47.448;8.582;2024-02-21T14:11:57;13.00;99.90
2869;DHT22;1442;47.448;8.582;2024-02-21T14:14:24;12.90;99.90
2869;DHT22;1442;47.448;8.582;2024-02-21T14:16:51;12.90;99.90
2869;DHT22;1442;47.448;8.582;2024-02-21T14:19:19;12.70;99.90
2869;DHT22;1442;47.448;8.582;2024-02-21T14:21:46;12.60;99.90
2869;DHT22;1442;47.448;8.582;2024-02-21T14:24:13;12.60;99.90
2869;DHT22;1442;47.448;8.582;2024-02-21T14:26:40;12.60;99.90
2869;DHT22;1442;47.448;8.582;2024-02-21T14:29:07;12.60;99.90
2869;DHT22;1442;47.448;8.582;2024-02-21T14:31:33;12.60;99.90
2869;DHT22;1442;47.448;8.582;2024-02-21T14:34:00;12.70;99.90
2869;DHT22;1442;47.448;8.582;2024-02-21T14:36:29;12.60;99.90
2869;DHT22;1442;47.448;8.582;2024-02-21T14:38:55;12.60;99.90
2869;DHT22;1442;47.448;8.582;2024-02-21T14:41:22;12.60;99.90
2869;DHT22;1442;47.448;8.582;2024-02-21T14:43:50;12.60;99.90
2869;DHT22;1442;47.448;8.582;2024-02-21T14:46:17;12.50;99.90
2869;DHT22;1442;47.448;8.582;2024-02-21T14:48:44;12.40;99.90
2869;DHT22;1442;47.448;8.582;2024-02-21T14:51:11;12.40;99.90
2869;DHT22;1442;47.448;8.582;2024-02-21T14:53:39;12.50;99.90
2869;DHT22;1442;47.448;8.582;2024-02-21T14:56:12;12.60;99.90
2869;DHT22;1442;47.448;8.582;2024-02-21T14:58:40;12.60;99.90
2869;DHT22;1442;47.448;8.582;2024-02-21T15:01:07;12.60;99.90
2869;DHT22;1442;47.448;8.582;2024-02-21T15:03:34;12.60;99.90
2869;DHT22;1442;47.448;8.582;2024-02-21T15:06:01;12.70;99.90
2869;DHT22;1442;47.448;8.582;2024-02-21T15:08:28;12.70;99.90
2869;DHT22;1442;47.448;8.582;2024-02-21T15:10:56;12.80;99.90
2869;DHT22;1442;47.448;8.582;2024-02-21T15:13:23;12.80;99.90
2869;DHT22;1442;47.448;8.582;2024-02-21T15:15:50;12.80;99.90
2869;DHT22;1442;47.448;8.582;2024-02-21T15:18:17;12.70;99.90
2869;DHT22;1442;47.448;8.582;2024-02-21T15:20:44;12.60;99.90
2869;DHT22;1442;47.448;8.582;2024-02-21T15:23:11;12.60;99.90
2869;DHT22;1442;47.448;8.582;2024-02-21T15:25:37;12.60;99.90
2869;DHT22;1442;47.448;8.582;2024-02-21T15:28:06;12.60;99.90
2869;DHT22;1442;47.448;8.582;2024-02-21T15:30:32;12.60;99.90
2869;DHT22;1442;47.448;8.582;2024-02-21T15:32:59;12.70;99.90
2869;DHT22;1442;47.448;8.582;2024-02-21T15:35:27;12.60;99.90
2869;DHT22;1442;47.448;8.582;2024-02-21T15:37:54;12.60;99.90
2869;DHT22;1442;47.448;8.582;2024-02-21T15:40:21;12.50;99.90
2869;DHT22;1442;47.448;8.582;2024-02-21T15:42:48;12.50;99.90
2869;DHT22;1442;47.448;8.582;2024-02-21T15:45:16;12.50;99.90
2869;DHT22;1442;47.448;8.582;2024-02-21T15:47:43;12.50;99.90
2869;DHT22;1442;47.448;8.582;2024-02-21T15:50:10;12.60;99.90
2869;DHT22;1442;47.448;8.582;2024-02-21T15:52:37;12.70;99.90
2869;DHT22;1442;47.448;8.582;2024-02-21T15:55:05;12.70;99.90
2869;DHT22;1442;47.448;8.582;2024-02-21T15:57:32;12.60;99.90
2869;DHT22;1442;47.448;8.582;2024-02-21T15:59:59;12.60;99.90
2869;DHT22;1442;47.448;8.582;2024-02-21T16:02:27;12.60;99.90
2869;DHT22;1442;47.448;8.582;2024-02-21T16:04:54;12.60;99.90
2869;DHT22;1442;47.448;8.582;2024-02-21T16:07:21;12.50;99.90
2869;DHT22;1442;47.448;8.582;2024-02-21T16:09:48;12.40;99.90
2869;DHT22;1442;47.448;8.582;2024-02-21T16:12:15;12.30;99.90
2869;DHT22;1442;47.448;8.582;2024-02-21T16:14:42;12.40;99.90
2869;DHT22;1442;47.448;8.582;2024-02-21T16:17:08;12.40;99.90